Colon, North Carolina
Current Conditions -  °F | °C
As of 7:35 PM on Monday 22 Dec 2014 (Local Time) from KTTA Reporting Station
Overcast Overcast  
Wind Chill: 33°   Ceiling: 400
Heat Index: 39°   Visibility: 7mi
Dew Point: 39°   Wind: 8mph
Humidity: 100%   Direction: 340°NNW
Pressure: 30.08"   Gusts: NA
Location:  35.493°N, 79.1765°W
Report Text: KTTA 230035Z AUTO 34007KT 7SM OVC004 04/04 A3008 RMK AO2 T00370037
Loading
Personal Weather Stations






























Interactive Weather Map New forecast layout! Learn more

10-Day Weather Forecast

Advertisements
Track Severe Weather on mobile